createdAt,value
2019-03-27T00:01:11.449Z,95706.4
2019-03-27T00:06:09.228Z,95783.3
2019-03-27T00:11:07.208Z,95773.3
2019-03-27T00:16:05.317Z,95774
2019-03-27T00:21:03.223Z,95768
2019-03-27T00:26:01.512Z,95772.3
2019-03-27T00:30:59.535Z,95773.3
2019-03-27T00:35:57.971Z,95775.2
2019-03-27T00:40:55.986Z,95695
2019-03-27T00:45:53.938Z,95770.3
2019-03-27T00:50:52.096Z,95695.8
2019-03-27T00:55:50.186Z,95695.1
2019-03-27T01:00:48.329Z,95780.1
2019-03-27T01:05:46.311Z,95699.2
2019-03-27T01:10:44.304Z,95783.3
2019-03-27T01:15:42.549Z,95705.7
2019-03-27T01:20:40.538Z,95791.6
2019-03-27T01:25:38.533Z,95790.1
2019-03-27T01:30:36.578Z,95705.8
2019-03-27T01:35:34.634Z,95720.9
2019-03-27T01:40:33.296Z,95760.1
2019-03-27T01:45:31.311Z,95795.1
2019-03-27T01:50:29.536Z,95800.3
2019-03-27T01:55:27.309Z,95812.1
2019-03-27T02:00:25.351Z,95814.2
2019-03-27T02:05:23.325Z,95816.9
2019-03-27T02:10:21.448Z,95738.7
2019-03-27T02:15:19.513Z,95802.3
2019-03-27T02:20:17.603Z,95827.3
2019-03-27T02:25:14.624Z,95822.7
2019-03-27T02:30:12.708Z,95828.2
2019-03-27T02:35:10.839Z,95775.4
2019-03-27T02:40:08.752Z,95839
2019-03-27T02:45:06.993Z,95764.6
2019-03-27T02:50:05.001Z,95846
2019-03-27T02:55:03.227Z,95853.1
2019-03-27T03:00:01.187Z,95855.8
2019-03-27T03:04:59.029Z,95863.5
2019-03-27T03:09:57.203Z,95784.4
2019-03-27T03:14:55.292Z,94968.3
2019-03-27T03:19:53.707Z,95784.7
2019-03-27T03:24:51.564Z,95870.6
2019-03-27T03:29:49.362Z,95878.9
2019-03-27T03:34:47.485Z,95874.6
2019-03-27T03:39:45.665Z,95876.3
2019-03-27T03:44:44.196Z,95888.6
2019-03-27T03:49:42.601Z,95898.6
2019-03-27T03:54:40.731Z,95894.4
2019-03-27T03:59:39.071Z,95912.5
2019-03-27T04:04:37.085Z,95917.1
2019-03-27T04:09:35.130Z,95913.2
2019-03-27T04:14:33.448Z,95916.7
2019-03-27T04:19:31.674Z,95913.9
2019-03-27T04:24:29.826Z,95924.4
2019-03-27T04:29:27.984Z,95926.1
2019-03-27T04:34:26.285Z,95927.9
2019-03-27T04:39:24.214Z,95933
2019-03-27T04:44:22.278Z,95946
2019-03-27T04:49:20.516Z,95954.9
2019-03-27T04:54:18.353Z,95946.9
2019-03-27T04:59:16.596Z,95929.5
2019-03-27T05:04:14.634Z,95964.7
2019-03-27T05:09:12.785Z,95967.8
2019-03-27T05:14:10.813Z,95973.8
2019-03-27T05:19:09.369Z,95978.9
2019-03-27T05:24:07.406Z,95941.1
2019-03-27T05:29:05.402Z,95979.6
2019-03-27T05:34:03.710Z,95978.9
2019-03-27T05:39:01.864Z,95983.8
2019-03-27T05:43:59.781Z,95993.8
2019-03-27T05:48:58.104Z,95999.3
2019-03-27T05:53:56.519Z,95927.3
2019-03-27T05:58:54.940Z,95991.7
2019-03-27T06:03:53.544Z,95999.9
2019-03-27T06:08:52.484Z,95996
2019-03-27T06:13:51.724Z,96008.7
2019-03-27T06:18:49.763Z,96003.6
2019-03-27T06:23:48.392Z,96079.1
2019-03-27T06:28:46.579Z,96010.4
2019-03-27T06:33:44.692Z,96013.6
2019-03-27T06:38:43.065Z,96016
2019-03-27T06:43:41.622Z,96016.6
2019-03-27T06:48:39.670Z,96020.4
2019-03-27T06:53:37.709Z,96020.8
2019-03-27T06:58:35.930Z,96023.9
2019-03-27T07:03:34.649Z,95932.3
2019-03-27T07:08:33.280Z,95933.3
2019-03-27T07:13:31.321Z,96012.1
2019-03-27T07:18:39.403Z,96020.4
2019-03-27T07:23:27.932Z,95938
2019-03-27T07:28:26.124Z,96013.7
2019-03-27T07:33:24.142Z,96006.7
2019-03-27T07:38:22.547Z,96006.8
2019-03-27T07:43:21.269Z,95931.6
2019-03-27T07:48:19.374Z,95929.3
2019-03-27T07:53:18.070Z,95928.6
2019-03-27T07:58:16.806Z,95926.8
2019-03-27T08:03:15.441Z,96009.5
2019-03-27T08:08:13.683Z,95876.2
2019-03-27T08:13:12.270Z,95942.5
2019-03-27T08:18:10.880Z,96038.5
2019-03-27T08:23:09.381Z,95941.7
2019-03-27T08:28:07.035Z,95938.2
2019-03-27T08:33:05.713Z,96022.6
2019-03-27T08:38:03.975Z,95941.9
2019-03-27T08:43:02.556Z,95938.9
2019-03-27T08:48:00.633Z,95925.3
2019-03-27T08:52:59.419Z,95934.1
2019-03-27T08:57:57.459Z,95925.8
2019-03-27T09:02:55.946Z,95999.3
2019-03-27T09:07:54.299Z,95922.6
2019-03-27T09:12:53.002Z,95914.8
2019-03-27T09:17:51.336Z,95913.1
2019-03-27T09:22:50.024Z,95994.1
2019-03-27T09:27:51.751Z,95942.8
2019-03-27T09:32:49.603Z,95912.4
2019-03-27T09:37:48.348Z,95995.5
2019-03-27T09:42:46.941Z,95916.2
2019-03-27T09:47:44.995Z,95904.5
2019-03-27T09:52:43.929Z,95263.5
2019-03-27T09:57:41.804Z,95905.5
2019-03-27T10:02:40.340Z,95911.6
2019-03-27T10:07:38.800Z,95901.4
2019-03-27T10:12:37.769Z,95981.1
2019-03-27T10:17:36.911Z,95971.1
2019-03-27T10:22:35.761Z,95883.6
2019-03-27T10:27:33.840Z,95896.6
2019-03-27T10:32:32.859Z,95850.5
2019-03-27T10:37:31.636Z,95795.8
2019-03-27T10:42:30.233Z,95859.2
2019-03-27T10:47:28.869Z,95859.1
2019-03-27T10:52:27.405Z,95854.2
2019-03-27T10:57:26.632Z,95999.6
2019-03-27T11:02:24.913Z,95556.3
2019-03-27T11:07:23.572Z,95839.2
2019-03-27T11:12:22.130Z,95827.6
2019-03-27T11:17:20.862Z,95915.5
2019-03-27T11:22:19.031Z,95851.6
2019-03-27T11:27:17.489Z,95896.4
2019-03-27T11:32:16.008Z,95890.5
2019-03-27T11:37:14.278Z,95904.7
2019-03-27T11:42:13.270Z,95889.2
2019-03-27T11:47:12.083Z,95870.3
2019-03-27T11:52:10.969Z,95804.2
2019-03-27T11:57:09.425Z,95869.1
2019-03-27T12:02:08.076Z,95862.1
2019-03-27T12:07:05.969Z,95859.2
2019-03-27T12:12:04.889Z,95852.7
2019-03-27T12:17:03.444Z,95836.3
2019-03-27T12:22:02.526Z,95844
2019-03-27T12:27:01.031Z,95847.8
2019-03-27T12:31:59.698Z,95839.2
2019-03-27T12:36:57.837Z,95828.3
2019-03-27T12:41:56.443Z,95828.9
2019-03-27T12:46:55.679Z,95704.3
2019-03-27T12:51:54.637Z,95740.3
2019-03-27T12:56:53.168Z,95694.3
2019-03-27T13:01:52.319Z,95742
2019-03-27T13:06:50.778Z,95812
2019-03-27T13:11:49.392Z,95814.2
2019-03-27T13:16:47.832Z,95749.2
2019-03-27T13:21:46.272Z,95810
2019-03-27T13:26:44.841Z,95808.3
2019-03-27T13:31:43.571Z,95802.1
2019-03-27T13:36:42.132Z,95816
2019-03-27T13:41:41.117Z,95701.9
2019-03-27T13:46:39.798Z,95784.3
2019-03-27T13:51:40.681Z,95816.4
2019-03-27T13:56:37.166Z,95743.1
2019-03-27T14:01:35.603Z,95823.9
2019-03-27T14:06:34.146Z,95829.4
2019-03-27T14:11:32.234Z,95820.3
2019-03-27T14:16:30.493Z,95817.8
2019-03-27T14:21:29.388Z,95766.2
2019-03-27T14:26:28.099Z,95747.9
2019-03-27T14:31:26.406Z,95836.1
2019-03-27T14:36:25.183Z,95827.1
2019-03-27T14:41:24.046Z,95754.3
2019-03-27T14:46:22.380Z,95839.7
2019-03-27T14:51:20.791Z,95840.3
2019-03-27T14:56:19.865Z,95764.7
2019-03-27T15:01:18.282Z,95834.5
2019-03-27T15:06:16.535Z,95854.4
2019-03-27T15:11:14.847Z,95818.3
2019-03-27T15:16:13.335Z,95852.5
2019-03-27T15:21:11.944Z,95857.7
2019-03-27T15:26:10.379Z,95854.4
2019-03-27T15:31:19.684Z,95784.3
2019-03-27T15:36:08.398Z,95780.7
2019-03-27T15:41:07.038Z,95796
2019-03-27T15:46:05.902Z,95868.9
2019-03-27T15:51:04.199Z,95870.4
2019-03-27T15:56:02.607Z,95877.2
2019-03-27T16:01:01.153Z,95813
2019-03-27T16:05:59.295Z,95896
2019-03-27T16:10:57.685Z,95930.9
2019-03-27T16:15:56.484Z,95904.4
2019-03-27T16:20:55.356Z,95905
2019-03-27T16:25:53.903Z,95907
2019-03-27T16:30:52.351Z,95918.8
2019-03-27T16:35:50.874Z,95931
2019-03-27T16:40:49.416Z,95870.4
2019-03-27T16:45:47.828Z,95941.4
2019-03-27T16:50:46.195Z,95948.5
2019-03-27T16:55:44.684Z,95965.7
2019-03-27T17:00:43.690Z,95891.7
2019-03-27T17:05:53.214Z,95968.2
2019-03-27T17:10:41.365Z,95907.8
2019-03-27T17:15:40.222Z,95914.9
2019-03-27T17:20:38.347Z,95983
2019-03-27T17:25:36.982Z,95998.2
2019-03-27T17:30:35.320Z,95941.5
2019-03-27T17:35:34.440Z,95945.7
2019-03-27T17:40:32.810Z,95999.6
2019-03-27T17:45:31.660Z,96048.1
2019-03-27T17:50:30.820Z,96061.2
2019-03-27T17:55:29.630Z,96051.5
2019-03-27T18:00:28.119Z,95984.7
2019-03-27T18:05:26.561Z,95991.3
2019-03-27T18:10:25.579Z,96077.6
2019-03-27T18:15:24.471Z,96058.9
2019-03-27T18:20:22.537Z,96010.8
2019-03-27T18:25:21.423Z,96021.9
2019-03-27T18:30:20.587Z,96161.2
2019-03-27T18:35:19.401Z,96104.6
2019-03-27T18:40:18.430Z,96166
2019-03-27T18:45:16.827Z,96036.9
2019-03-27T18:50:15.711Z,96034.7
2019-03-27T18:55:25.685Z,96119.1
2019-03-27T19:00:13.342Z,96031.8
2019-03-27T19:05:11.810Z,96036.3
2019-03-27T19:10:10.444Z,96036.9
2019-03-27T19:15:09.301Z,96047.1
2019-03-27T19:20:08.502Z,96045.9
2019-03-27T19:25:07.588Z,96123.1
2019-03-27T19:30:06.813Z,96068.1
2019-03-27T19:35:05.276Z,96058.4
2019-03-27T19:40:04.079Z,96056.3
2019-03-27T19:45:02.644Z,96051.9
2019-03-27T19:50:01.926Z,96057.9
2019-03-27T19:55:00.547Z,96059.8
2019-03-27T19:59:59.046Z,96058.9
2019-03-27T20:04:57.581Z,96053.8
2019-03-27T20:09:56.629Z,96064.3
2019-03-27T20:14:55.106Z,96075.2
2019-03-27T20:19:54.042Z,96067.7
2019-03-27T20:24:52.737Z,96069.7
2019-03-27T20:29:51.284Z,96067.2
2019-03-27T20:34:49.935Z,96081.2
2019-03-27T20:39:48.292Z,96084.7
2019-03-27T20:44:46.957Z,96094.8
2019-03-27T20:49:45.954Z,96055.9
2019-03-27T20:54:54.597Z,96100.6
2019-03-27T20:59:43.242Z,96115.7
2019-03-27T21:04:41.942Z,96118.1
2019-03-27T21:09:40.604Z,96109.8
2019-03-27T21:14:39.208Z,96117.7
2019-03-27T21:19:37.731Z,96111.5
2019-03-27T21:24:36.201Z,96117.2
2019-03-27T21:29:35.044Z,96122.3
2019-03-27T21:34:33.769Z,96126.1
2019-03-27T21:39:32.606Z,96134.6
2019-03-27T21:44:31.108Z,96133.4
2019-03-27T21:49:29.938Z,96132.4
2019-03-27T21:54:28.771Z,96137.9
2019-03-27T21:59:28.109Z,96139.6
2019-03-27T22:04:27.220Z,96135.7
2019-03-27T22:09:25.613Z,96142.9
2019-03-27T22:14:24.903Z,96150.6
2019-03-27T22:19:23.852Z,96149.2
2019-03-27T22:24:22.740Z,96123.5
2019-03-27T22:29:21.753Z,96153.3
2019-03-27T22:34:20.749Z,96242.9
2019-03-27T22:39:19.395Z,96172.8
2019-03-27T22:44:17.838Z,96177.5
2019-03-27T22:49:16.585Z,96178.6
2019-03-27T22:54:15.209Z,96176.8
2019-03-27T22:59:14.663Z,96259.8
2019-03-27T23:04:13.095Z,96168.7
2019-03-27T23:09:11.721Z,96181.8
2019-03-27T23:14:10.873Z,96178.7
2019-03-27T23:19:09.533Z,96185.2
2019-03-27T23:24:08.182Z,96186.7
2019-03-27T23:29:07.090Z,96183.5
2019-03-27T23:34:05.952Z,96180.5
2019-03-27T23:39:04.658Z,96276.4
2019-03-27T23:44:03.299Z,96266.8
2019-03-27T23:49:02.209Z,96264.4
2019-03-27T23:54:01.123Z,96265.4
2019-03-27T23:59:00.219Z,96011.2
